Time;durP1;ratioP1;P1;durP2;ratioP2;P2;SDS_P1;SDS_P2;PMS_P1;PMS_P2;Temp;Humidity;BMP_temperature;BMP_pressure;BME280_temperature;BME280_humidity;BME280_pressure;Samples;Min_cycle;Max_cycle;Signal;HPM_P1;HPM_P2
2022/07/21 00:02:21;;;;;;;8.32;7.43;;;;;;;23.50;50.04;96277.94;5087945;28;20406;-66
2022/07/21 00:04:46;;;;;;;9.63;7.13;;;;;;;23.53;49.84;96265.91;5089766;28;20020;-66
2022/07/21 00:07:12;;;;;;;8.07;6.95;;;;;;;23.53;49.93;96266.75;5108609;28;20026;-66
2022/07/21 00:09:37;;;;;;;10.02;7.57;;;;;;;23.50;49.27;96272.56;5108801;28;20027;-66
2022/07/21 00:12:04;;;;;;;9.23;7.32;;;;;;;23.50;49.52;96272.56;5079774;28;20060;-65
2022/07/21 00:14:29;;;;;;;7.72;6.78;;;;;;;23.49;49.53;96272.75;5103782;28;20410;-66
2022/07/21 00:16:55;;;;;;;8.20;7.40;;;;;;;23.50;49.34;96269.03;5087790;28;20031;-66
2022/07/21 00:19:20;;;;;;;8.60;7.80;;;;;;;23.48;49.51;96268.41;5083326;28;20119;-65
2022/07/21 00:21:46;;;;;;;7.13;6.43;;;;;;;23.49;49.35;96273.59;5103624;28;20027;-66
2022/07/21 00:24:11;;;;;;;8.45;6.90;;;;;;;23.52;49.00;96275.03;5108507;28;20023;-65
2022/07/21 00:26:37;;;;;;;7.78;7.05;;;;;;;23.50;49.54;96272.56;5108595;28;20020;-66
2022/07/21 00:29:02;;;;;;;7.03;6.43;;;;;;;23.51;49.56;96273.38;5093757;28;20039;-66
2022/07/21 00:31:27;;;;;;;8.52;6.90;;;;;;;23.46;49.55;96260.59;5074093;28;20025;-66
2022/07/21 00:33:53;;;;;;;7.30;6.65;;;;;;;23.39;49.91;96268.66;5077770;28;20019;-66
2022/07/21 00:36:20;;;;;;;9.90;6.68;;;;;;;23.34;49.70;96262.25;5087373;28;20024;-65
2022/07/21 00:38:46;;;;;;;7.30;6.70;;;;;;;23.25;50.66;96269.66;5075653;28;20024;-66
2022/07/21 00:41:11;;;;;;;7.65;6.95;;;;;;;23.21;50.35;96268.44;5091545;28;20013;-65
2022/07/21 00:43:36;;;;;;;7.50;6.80;;;;;;;23.22;50.42;96273.63;5091889;28;20032;-66
2022/07/21 00:46:02;;;;;;;7.63;6.85;;;;;;;23.20;50.76;96272.97;5081936;28;20065;-66
2022/07/21 00:48:27;;;;;;;7.30;6.60;;;;;;;23.12;51.15;96274.03;5090482;28;20418;-66
2022/07/21 00:50:53;;;;;;;7.10;6.38;;;;;;;23.10;51.60;96276.09;5092010;28;20570;-65
2022/07/21 00:53:18;;;;;;;11.13;7.28;;;;;;;23.10;51.19;96275.25;5082273;28;20024;-66
2022/07/21 00:55:44;;;;;;;8.27;7.07;;;;;;;23.11;51.63;96285.81;5084657;28;20525;-66
2022/07/21 00:58:10;;;;;;;7.95;7.15;;;;;;;23.08;51.39;96275.44;5088008;28;20404;-66
2022/07/21 01:00:36;;;;;;;8.23;7.05;;;;;;;23.02;52.14;96279.81;5085112;28;20039;-65
2022/07/21 01:03:02;;;;;;;7.97;7.25;;;;;;;23.06;52.16;96285.56;5078709;28;20135;-66
2022/07/21 01:05:28;;;;;;;8.32;7.53;;;;;;;23.11;51.97;96283.13;5098806;28;20119;-66
2022/07/21 01:07:55;;;;;;;11.02;7.70;;;;;;;23.11;51.97;96277.75;5112243;28;20382;-66
2022/07/21 01:10:24;;;;;;;10.80;7.47;;;;;;;23.12;52.31;96287.47;5111865;28;20027;-66
2022/07/21 01:12:50;;;;;;;8.30;6.60;;;;;;;23.08;52.72;96286.19;5093581;28;20754;-65
2022/07/21 01:15:18;;;;;;;8.13;6.88;;;;;;;22.98;53.00;96277.75;5111755;28;20068;-65
2022/07/21 01:17:44;;;;;;;7.72;7.03;;;;;;;22.99;52.76;96277.53;5111992;28;20032;-66
2022/07/21 01:20:13;;;;;;;12.88;6.88;;;;;;;22.93;53.46;96277.53;5093119;28;20561;-65
2022/07/21 01:22:41;;;;;;;8.30;7.28;;;;;;;22.90;53.72;96270.72;5111546;28;20107;-65
2022/07/21 01:25:07;;;;;;;8.68;7.55;;;;;;;22.88;53.81;96272.78;5088331;28;20021;-66
2022/07/21 01:27:33;;;;;;;8.65;7.75;;;;;;;22.83;53.92;96276.06;5111618;28;20036;-65
2022/07/21 01:29:59;;;;;;;7.95;6.93;;;;;;;22.82;54.23;96269.06;5111604;28;20051;-66
2022/07/21 01:32:25;;;;;;;8.05;6.60;;;;;;;22.80;54.24;96273.81;5107105;28;20083;-65
2022/07/21 01:34:51;;;;;;;8.20;7.28;;;;;;;22.79;54.45;96265.97;5102562;28;20038;-65
2022/07/21 01:37:29;;;;;;;10.88;7.50;;;;;;;22.75;55.08;96266.34;5111254;28;20024;-65
2022/07/21 01:42:38;;;;;;;9.15;8.18;;;;;;;22.62;55.94;96266.34;5109528;28;20030;-65
2022/07/21 01:45:05;;;;;;;9.00;6.85;;;;;;;22.63;55.56;96265.31;5110732;28;20028;-65
2022/07/21 01:47:31;;;;;;;7.63;6.88;;;;;;;22.58;55.29;96257.88;5092397;28;20035;-66
2022/07/21 01:49:57;;;;;;;8.07;7.35;;;;;;;22.56;56.05;96259.94;5106762;28;20490;-65
2022/07/21 01:52:22;;;;;;;9.48;7.15;;;;;;;22.54;56.44;96258.47;5100744;28;20136;-65
2022/07/21 01:54:48;;;;;;;8.13;7.20;;;;;;;22.49;56.18;96255.59;5104291;28;20076;-66
2022/07/21 01:57:13;;;;;;;8.85;6.95;;;;;;;22.44;56.41;96250.84;5097736;28;20085;-65
2022/07/21 01:59:39;;;;;;;7.78;7.03;;;;;;;22.41;56.53;96254.72;5109558;28;20026;-65
2022/07/21 02:02:04;;;;;;;8.57;7.15;;;;;;;22.33;57.04;96249.56;5093724;28;20499;-66
2022/07/21 02:04:30;;;;;;;7.55;6.85;;;;;;;22.16;57.43;96249.94;5076338;28;20137;-65
2022/07/21 02:06:55;;;;;;;8.25;6.85;;;;;;;22.10;57.99;96245.34;5092721;28;20020;-65
2022/07/21 02:09:21;;;;;;;9.13;7.28;;;;;;;22.08;57.80;96241.25;5096410;28;20107;-65
2022/07/21 02:11:46;;;;;;;7.93;6.88;;;;;;;22.06;58.07;96245.97;5090037;28;20043;-65
2022/07/21 02:14:11;;;;;;;7.90;7.10;;;;;;;22.06;57.62;96246.78;5091954;28;20048;-65
2022/07/21 02:16:37;;;;;;;7.55;6.93;;;;;;;22.01;57.85;96255.47;5089971;28;20089;-65
2022/07/21 02:19:03;;;;;;;8.15;7.35;;;;;;;21.92;58.51;96253.97;5081086;28;20150;-65
2022/07/21 02:21:29;;;;;;;8.27;7.57;;;;;;;21.79;59.18;96240.53;5083472;28;20032;-65
2022/07/21 02:23:54;;;;;;;8.50;7.10;;;;;;;21.72;59.58;96246.66;5081540;28;20567;-65
2022/07/21 02:26:20;;;;;;;8.70;7.82;;;;;;;21.69;59.23;96243.56;5085630;28;20016;-66
2022/07/21 02:28:45;;;;;;;8.57;6.95;;;;;;;21.66;59.98;96242.09;5091924;28;20479;-66
2022/07/21 02:31:10;;;;;;;8.90;7.68;;;;;;;21.54;60.49;96238.28;5091406;28;20024;-66
2022/07/21 02:33:36;;;;;;;8.73;7.82;;;;;;;21.44;61.38;96242.16;5090508;28;20020;-66
2022/07/21 02:36:02;;;;;;;7.97;7.28;;;;;;;21.38;62.15;96244.78;5086189;28;20020;-65
2022/07/21 02:38:27;;;;;;;8.20;7.40;;;;;;;21.31;61.76;96247.44;5090343;28;20190;-65
2022/07/21 02:40:53;;;;;;;8.75;7.72;;;;;;;21.33;61.33;96243.53;5088059;28;20110;-66
2022/07/21 02:43:18;;;;;;;8.77;7.88;;;;;;;21.26;61.80;96242.69;5084962;28;20532;-65
2022/07/21 02:45:44;;;;;;;10.25;7.28;;;;;;;21.22;62.75;96243.25;5087344;28;20035;-66
2022/07/21 02:48:11;;;;;;;7.45;6.75;;;;;;;21.20;62.32;96242.63;5078099;28;20275;-66
2022/07/21 02:50:39;;;;;;;9.43;7.45;;;;;;;21.14;63.02;96241.56;5110875;28;20112;-66
2022/07/21 02:53:11;;;;;;;9.25;7.40;;;;;;;21.07;63.15;96246.84;5110421;28;20028;-66
2022/07/21 02:55:36;;;;;;;20.20;8.13;;;;;;;21.02;63.68;96242.13;5110794;28;20031;-66
2022/07/21 02:58:10;;;;;;;8.27;7.47;;;;;;;21.01;63.62;96240.47;5110708;28;20026;-65
2022/07/21 03:00:40;;;;;;;8.57;7.50;;;;;;;20.93;64.11;96232.56;5110602;28;20032;-65
2022/07/21 03:03:06;;;;;;;7.93;7.20;;;;;;;20.83;64.45;96238.25;5103997;28;20071;-65
2022/07/21 03:05:33;;;;;;;9.13;7.68;;;;;;;20.81;64.02;96239.47;5105649;28;20059;-65
2022/07/21 03:07:58;;;;;;;17.30;7.55;;;;;;;20.72;64.57;96241.41;5105594;28;20015;-65
2022/07/21 03:10:24;;;;;;;8.60;7.90;;;;;;;20.63;64.78;96235.38;5110053;28;20574;-66
2022/07/21 03:12:49;;;;;;;8.73;7.78;;;;;;;20.66;64.62;96242.16;5110464;28;20019;-66
2022/07/21 03:15:15;;;;;;;8.45;7.65;;;;;;;20.65;64.74;96243.19;5098934;28;20059;-65
2022/07/21 03:17:40;;;;;;;8.30;7.63;;;;;;;20.61;64.77;96240.09;5108022;28;20562;-66
2022/07/21 03:20:06;;;;;;;10.23;7.63;;;;;;;20.64;64.40;96237.03;5091190;28;20027;-66
2022/07/21 03:22:31;;;;;;;8.07;7.38;;;;;;;20.67;64.27;96243.81;5092297;28;20032;-66
2022/07/21 03:24:57;;;;;;;8.95;8.05;;;;;;;20.57;65.30;96246.84;5110210;28;20036;-65
2022/07/21 03:27:22;;;;;;;8.80;7.93;;;;;;;20.53;65.80;96249.06;5110153;28;20027;-65
2022/07/21 03:29:47;;;;;;;10.10;7.90;;;;;;;20.47;65.58;96250.66;5109368;28;20023;-65
2022/07/21 03:32:13;;;;;;;9.45;7.90;;;;;;;20.47;65.86;96249.84;5088808;28;20085;-66
2022/07/21 03:34:38;;;;;;;8.35;7.65;;;;;;;20.53;65.52;96254.41;5089414;28;20467;-65
2022/07/21 03:37:03;;;;;;;9.10;8.02;;;;;;;20.47;65.37;96256.00;5089882;28;20109;-65
2022/07/21 03:39:29;;;;;;;7.90;7.20;;;;;;;20.40;65.84;96252.44;5088878;28;20028;-66
2022/07/21 03:41:54;;;;;;;7.97;7.07;;;;;;;20.39;65.66;96261.50;5091230;28;20115;-63
2022/07/21 03:44:20;;;;;;;9.45;7.32;;;;;;;20.28;66.38;96254.78;5093024;28;20032;-63
2022/07/21 03:46:45;;;;;;;9.70;8.18;;;;;;;20.26;65.89;96264.00;5090003;28;20024;-63
2022/07/21 03:49:10;;;;;;;8.82;8.02;;;;;;;20.24;66.28;96266.03;5089715;28;20051;-63
2022/07/21 03:51:36;;;;;;;8.50;7.53;;;;;;;20.15;66.29;96263.50;5090387;28;20055;-63
2022/07/21 03:54:02;;;;;;;8.70;7.80;;;;;;;20.22;65.94;96263.56;5089985;28;20012;-63
2022/07/21 03:56:28;;;;;;;9.43;7.68;;;;;;;20.17;66.36;96264.13;5097292;28;20035;-62
2022/07/21 03:58:53;;;;;;;9.27;7.75;;;;;;;20.16;67.06;96265.16;5096545;28;20024;-62
2022/07/21 04:01:19;;;;;;;8.68;7.85;;;;;;;20.15;66.28;96257.31;5089654;28;20040;-63
2022/07/21 04:03:44;;;;;;;8.45;7.65;;;;;;;20.14;66.65;96263.69;5083800;28;20032;-63
2022/07/21 04:06:10;;;;;;;10.52;7.95;;;;;;;20.02;67.72;96256.16;5089337;28;20032;-63
2022/07/21 04:08:37;;;;;;;8.35;7.43;;;;;;;20.02;66.86;96264.19;5083418;28;20019;-63
2022/07/21 04:11:02;;;;;;;10.18;8.02;;;;;;;19.97;67.42;96260.41;5089580;28;20065;-63
2022/07/21 04:13:27;;;;;;;8.48;7.60;;;;;;;19.98;67.87;96262.88;5082972;28;20016;-63
2022/07/21 04:15:53;;;;;;;9.30;7.78;;;;;;;19.93;67.82;96261.81;5094855;28;20062;-63
2022/07/21 04:18:18;;;;;;;8.65;7.88;;;;;;;19.95;68.12;96265.91;5092691;28;20028;-64
2022/07/21 04:20:43;;;;;;;8.77;7.97;;;;;;;19.89;68.15;96263.97;5096897;28;20517;-63
2022/07/21 04:23:09;;;;;;;9.43;8.27;;;;;;;19.90;68.58;96260.28;5114346;28;20027;-63
2022/07/21 04:25:35;;;;;;;9.85;8.85;;;;;;;19.88;69.39;96259.66;5096139;28;20024;-63
2022/07/21 04:28:01;;;;;;;11.63;8.25;;;;;;;19.82;69.42;96257.72;5082009;28;20046;-63
2022/07/21 04:30:26;;;;;;;8.88;7.95;;;;;;;19.85;69.02;96255.50;5084912;28;20101;-63
2022/07/21 04:32:52;;;;;;;10.45;8.30;;;;;;;19.82;69.15;96255.06;5071415;28;20068;-63
2022/07/21 04:35:18;;;;;;;9.68;7.82;;;;;;;19.83;68.91;96251.38;5085102;28;20091;-63
2022/07/21 04:37:44;;;;;;;9.70;8.50;;;;;;;19.90;68.44;96244.25;5091369;28;20020;-63
2022/07/21 04:40:11;;;;;;;8.88;8.05;;;;;;;19.88;68.29;96252.44;5092933;28;20016;-63
2022/07/21 04:42:37;;;;;;;10.20;7.55;;;;;;;19.88;68.42;96249.78;5092952;28;20390;-63
2022/07/21 04:45:07;;;;;;;8.60;7.80;;;;;;;19.83;69.56;96254.03;5093330;28;20020;-63
2022/07/21 04:47:32;;;;;;;8.70;7.82;;;;;;;19.76;70.10;96257.44;5093408;28;20024;-64
2022/07/21 04:49:57;;;;;;;8.32;7.57;;;;;;;19.77;70.04;96252.94;5074953;28;20051;-63
2022/07/21 04:52:23;;;;;;;8.88;7.63;;;;;;;19.78;69.68;96251.91;5093058;28;20078;-63
2022/07/21 04:54:49;;;;;;;10.48;7.57;;;;;;;19.82;69.00;96253.19;5089034;28;20035;-63
2022/07/21 04:57:14;;;;;;;8.82;7.82;;;;;;;19.83;68.98;96256.72;5085345;28;20020;-63
2022/07/21 04:59:39;;;;;;;8.98;8.15;;;;;;;19.86;69.33;96256.34;5085426;28;20050;-63
2022/07/21 05:02:05;;;;;;;8.70;7.35;;;;;;;19.85;69.18;96258.16;5085116;28;20044;-63
2022/07/21 05:04:31;;;;;;;8.82;7.97;;;;;;;19.89;69.47;96261.31;5092795;28;20025;-63
2022/07/21 05:06:56;;;;;;;8.73;7.93;;;;;;;19.87;69.10;96258.81;5092789;28;20012;-63
2022/07/21 05:09:22;;;;;;;8.40;7.68;;;;;;;19.76;69.80;96265.44;5092670;28;20024;-63
2022/07/21 05:11:47;;;;;;;9.35;8.45;;;;;;;19.78;69.36;96262.59;5092840;28;20023;-63
2022/07/21 05:14:12;;;;;;;10.60;8.00;;;;;;;19.73;69.82;96265.00;5093063;28;20129;-63
2022/07/21 05:16:38;;;;;;;8.45;7.70;;;;;;;19.71;70.31;96267.84;5092593;28;20023;-62
2022/07/21 05:19:03;;;;;;;9.13;7.90;;;;;;;19.79;69.52;96266.13;5093888;28;20051;-63
2022/07/21 05:21:29;;;;;;;9.65;7.93;;;;;;;19.85;69.21;96260.84;5101073;28;20494;-62
2022/07/21 05:23:54;;;;;;;8.82;7.97;;;;;;;19.87;70.55;96266.00;5112759;28;20039;-63
2022/07/21 05:26:20;;;;;;;9.25;8.23;;;;;;;19.97;69.48;96266.56;5093421;28;20036;-63
2022/07/21 05:28:45;;;;;;;11.57;8.02;;;;;;;20.09;68.68;96263.41;5082408;28;20480;-63
2022/07/21 05:31:11;;;;;;;8.48;7.68;;;;;;;20.18;68.25;96270.28;5085344;28;20027;-63
2022/07/21 05:33:37;;;;;;;8.52;7.68;;;;;;;20.33;67.25;96268.41;5092451;28;20060;-63
2022/07/21 05:36:03;;;;;;;10.65;8.13;;;;;;;20.58;65.84;96272.56;5088562;28;20470;-63
2022/07/21 05:38:29;;;;;;;8.77;7.82;;;;;;;20.50;66.00;96262.81;5091933;28;20024;-63
2022/07/21 05:40:55;;;;;;;11.10;8.43;;;;;;;20.56;65.96;96274.63;5091993;28;20471;-63
2022/07/21 05:43:20;;;;;;;12.65;9.02;;;;;;;20.61;66.05;96266.84;5092045;28;20032;-63
2022/07/21 05:45:45;;;;;;;10.38;8.85;;;;;;;20.71;65.50;96266.53;5092491;28;20612;-63
2022/07/21 05:48:11;;;;;;;8.90;8.00;;;;;;;20.78;65.09;96267.41;5092076;28;20428;-63
2022/07/21 05:50:36;;;;;;;9.15;8.23;;;;;;;20.87;64.56;96268.13;5089414;28;20052;-63
2022/07/21 05:53:02;;;;;;;10.63;8.50;;;;;;;20.89;65.09;96272.28;5091763;28;20016;-63
2022/07/21 05:55:27;;;;;;;14.70;8.90;;;;;;;20.95;64.97;96269.84;5082173;28;20111;-63
2022/07/21 05:57:52;;;;;;;13.02;9.43;;;;;;;21.11;64.75;96263.38;5104757;28;20593;-63
2022/07/21 06:00:18;;;;;;;9.40;8.60;;;;;;;21.17;64.75;96266.09;5070641;28;20032;-63
2022/07/21 06:02:45;;;;;;;12.50;8.18;;;;;;;21.28;63.73;96266.56;5103519;28;20050;-63
2022/07/21 06:05:10;;;;;;;9.38;7.82;;;;;;;21.50;62.48;96266.50;5106606;28;20058;-63
2022/07/21 06:07:36;;;;;;;10.40;7.50;;;;;;;21.62;61.91;96272.97;5090977;28;20059;-63
2022/07/21 06:10:03;;;;;;;8.50;7.80;;;;;;;21.69;61.38;96278.41;5091363;28;20032;-64
2022/07/21 06:12:28;;;;;;;7.93;7.22;;;;;;;21.77;61.54;96280.91;5091291;28;20119;-63
2022/07/21 06:14:55;;;;;;;8.45;7.70;;;;;;;21.86;61.28;96285.06;5078042;28;20115;-63
2022/07/21 06:17:21;;;;;;;8.38;7.55;;;;;;;21.89;60.26;96283.84;5089839;28;20055;-64
2022/07/21 06:19:46;;;;;;;8.10;7.32;;;;;;;21.99;60.22;96278.13;5090634;28;20039;-62
2022/07/21 06:22:11;;;;;;;8.65;7.80;;;;;;;22.19;60.46;96288.91;5102494;28;20024;-63
2022/07/21 06:24:37;;;;;;;8.13;7.43;;;;;;;22.35;60.09;96286.91;5099994;28;20032;-63
2022/07/21 06:27:03;;;;;;;8.40;7.00;;;;;;;22.46;59.27;96279.13;5098519;28;20487;-63
2022/07/21 06:29:28;;;;;;;7.75;7.03;;;;;;;22.66;58.70;96283.69;5073429;28;20085;-63
2022/07/21 06:31:54;;;;;;;8.13;7.43;;;;;;;22.90;58.35;96281.44;5088793;28;20433;-65
2022/07/21 06:34:19;;;;;;;9.77;7.57;;;;;;;23.21;56.99;96296.13;5079369;28;20029;-72
2022/07/21 06:36:44;;;;;;;14.32;7.70;;;;;;;23.41;55.97;96287.22;5106735;28;20087;-72
2022/07/21 06:39:12;;;;;;;8.52;7.72;;;;;;;23.65;55.27;96290.28;5111010;28;20068;-71
2022/07/21 06:41:39;;;;;;;7.90;7.10;;;;;;;23.95;54.28;96293.31;5110694;28;20031;-71
2022/07/21 06:44:05;;;;;;;8.15;7.30;;;;;;;24.01;54.18;96294.31;5111069;28;20034;-71
2022/07/21 06:46:32;;;;;;;11.35;8.38;;;;;;;24.26;54.26;96289.09;5111314;28;20035;-71
2022/07/21 06:48:57;;;;;;;10.10;7.35;;;;;;;24.52;52.93;96295.34;5111490;28;20040;-72
2022/07/21 06:51:22;;;;;;;8.32;7.63;;;;;;;24.78;52.29;96298.94;5111477;28;20019;-72
2022/07/21 06:53:48;;;;;;;8.30;6.82;;;;;;;25.00;51.33;96294.03;5111128;28;20023;-71
2022/07/21 06:56:13;;;;;;;7.50;6.72;;;;;;;25.30;51.20;96297.91;5111206;28;20058;-71
2022/07/21 06:58:46;;;;;;;7.13;6.43;;;;;;;25.44;49.86;96295.97;5087332;28;20397;-71
2022/07/21 07:01:14;;;;;;;7.55;6.82;;;;;;;25.71;48.69;96296.53;5087210;28;20036;-71
2022/07/21 07:03:40;;;;;;;7.47;6.80;;;;;;;25.96;46.42;96305.59;5086998;28;20063;-70
2022/07/21 07:06:06;;;;;;;6.63;5.97;;;;;;;25.92;47.06;96297.13;5087273;28;20048;-71
2022/07/21 07:08:32;;;;;;;11.20;6.70;;;;;;;26.24;47.91;96305.09;5087264;28;20028;-71
2022/07/21 07:10:57;;;;;;;7.95;6.60;;;;;;;26.40;46.61;96308.19;5087110;28;20020;-71
2022/07/21 07:13:23;;;;;;;6.70;6.07;;;;;;;26.59;45.64;96303.59;5087234;28;20446;-71
2022/07/21 07:15:48;;;;;;;6.63;5.90;;;;;;;27.00;45.75;96303.84;5085782;28;20024;-71
2022/07/21 07:18:14;;;;;;;8.45;5.93;;;;;;;27.14;44.47;96308.00;5087050;28;20082;-71
2022/07/21 07:20:39;;;;;;;6.63;5.97;;;;;;;27.37;44.30;96300.97;5086798;28;20031;-71
2022/07/21 07:23:05;;;;;;;7.32;6.38;;;;;;;27.66;43.11;96300.28;5086984;28;20103;-71
2022/07/21 07:25:30;;;;;;;6.80;5.68;;;;;;;27.72;43.01;96296.63;5086931;28;20028;-72
2022/07/21 07:27:56;;;;;;;7.78;5.43;;;;;;;27.92;42.79;96295.44;5087069;28;20032;-71
2022/07/21 07:30:23;;;;;;;6.32;5.72;;;;;;;28.02;42.75;96287.53;5086874;28;20047;-71
2022/07/21 07:32:48;;;;;;;6.80;5.30;;;;;;;28.31;41.81;96282.19;5086507;28;20024;-70
2022/07/21 07:35:14;;;;;;;5.88;5.28;;;;;;;28.42;41.35;96284.00;5086766;28;20029;-69
2022/07/21 07:37:42;;;;;;;5.82;5.10;;;;;;;28.43;39.85;96285.66;5085022;28;20402;-69
2022/07/21 07:40:11;;;;;;;5.90;4.90;;;;;;;28.55;41.56;96280.19;5086554;28;20032;-70
2022/07/21 07:42:37;;;;;;;5.20;4.70;;;;;;;28.65;40.79;96281.47;5086616;28;20063;-71
2022/07/21 07:45:05;;;;;;;5.13;4.72;;;;;;;28.83;40.19;96280.44;5086673;28;20058;-69
2022/07/21 07:47:30;;;;;;;7.85;5.00;;;;;;;29.04;39.30;96270.75;5079288;28;20043;-71
2022/07/21 07:49:56;;;;;;;5.10;4.70;;;;;;;29.39;39.08;96272.38;5085077;28;20455;-70
2022/07/21 07:52:22;;;;;;;6.13;4.72;;;;;;;29.38;37.68;96273.47;5086270;28;20047;-70
2022/07/21 07:54:47;;;;;;;5.45;4.97;;;;;;;29.61;37.04;96268.94;5086121;28;20068;-70
2022/07/21 07:57:13;;;;;;;5.47;4.60;;;;;;;29.73;38.12;96266.09;5093901;28;20188;-70
2022/07/21 07:59:38;;;;;;;9.55;4.78;;;;;;;29.70;38.37;96267.41;5106467;28;20024;-70
2022/07/21 08:02:04;;;;;;;7.72;4.50;;;;;;;29.89;36.97;96267.13;5106386;28;20057;-70
2022/07/21 08:04:29;;;;;;;6.57;4.93;;;;;;;29.83;37.23;96258.09;5106876;28;20032;-70
2022/07/21 08:06:55;;;;;;;4.72;4.30;;;;;;;30.12;36.18;96260.66;5106241;28;20023;-70
2022/07/21 08:09:20;;;;;;;5.68;4.30;;;;;;;30.20;36.33;96251.25;5097345;28;20051;-70
2022/07/21 08:11:47;;;;;;;4.75;4.30;;;;;;;30.28;35.36;96263.53;5092830;28;20429;-70
2022/07/21 08:14:13;;;;;;;6.28;4.30;;;;;;;30.24;35.00;96265.13;5092799;28;20069;-71
2022/07/21 08:16:39;;;;;;;5.85;4.03;;;;;;;30.31;34.87;96260.34;5092380;28;20145;-70
2022/07/21 08:19:04;;;;;;;5.70;4.20;;;;;;;30.33;35.39;96255.47;5091297;28;20110;-70
2022/07/21 08:21:30;;;;;;;7.60;4.80;;;;;;;30.34;35.58;96254.38;5092895;28;20024;-70
2022/07/21 08:23:57;;;;;;;5.00;4.47;;;;;;;30.67;34.64;96249.84;5092492;28;20029;-70
2022/07/21 08:26:23;;;;;;;6.20;4.78;;;;;;;30.38;34.73;96252.78;5074486;28;20935;-70
2022/07/21 08:28:48;;;;;;;4.85;4.28;;;;;;;30.76;34.90;96258.34;5092617;28;20027;-70
2022/07/21 08:31:14;;;;;;;4.45;4.13;;;;;;;31.28;33.98;96248.75;5092313;28;20539;-70
2022/07/21 08:33:39;;;;;;;6.15;4.25;;;;;;;31.30;33.99;96252.00;5092416;28;20036;-71
2022/07/21 08:36:05;;;;;;;5.60;4.53;;;;;;;31.30;34.01;96254.72;5092203;28;20016;-70
2022/07/21 08:38:30;;;;;;;4.38;3.97;;;;;;;31.34;33.86;96244.16;5092563;28;20441;-70
2022/07/21 08:40:57;;;;;;;4.40;4.05;;;;;;;31.33;33.10;96250.69;5092161;28;20101;-71
2022/07/21 08:43:24;;;;;;;6.75;4.82;;;;;;;31.18;33.83;96236.94;5092325;28;20066;-70
2022/07/21 08:45:49;;;;;;;5.07;4.50;;;;;;;31.08;34.53;96241.25;5092108;28;20523;-70
2022/07/21 08:48:21;;;;;;;4.70;4.22;;;;;;;31.46;32.91;96234.97;5091894;28;20099;-70
2022/07/21 08:50:47;;;;;;;7.85;4.80;;;;;;;31.72;32.64;96227.78;5092220;28;20157;-71
2022/07/21 08:53:12;;;;;;;4.35;4.00;;;;;;;31.49;34.13;96231.72;5091944;28;20453;-70
2022/07/21 08:55:39;;;;;;;5.07;4.55;;;;;;;31.74;32.86;96222.88;5091782;28;20069;-70
2022/07/21 08:58:08;;;;;;;6.00;4.80;;;;;;;31.60;32.63;96227.97;5091934;28;20043;-71
2022/07/21 09:00:35;;;;;;;5.90;4.00;;;;;;;31.23;32.17;96226.13;5092178;28;20069;-71
2022/07/21 09:03:21;;;;;;;7.88;4.40;;;;;;;31.59;33.04;96223.63;5091694;28;20024;-71
2022/07/21 09:06:14;;;;;;;4.43;4.00;;;;;;;31.21;33.41;96218.25;5073647;28;20475;-71
2022/07/21 09:08:44;;;;;;;5.70;4.88;;;;;;;31.38;33.82;96218.06;5091288;28;20057;-70
2022/07/21 09:11:27;;;;;;;5.85;4.50;;;;;;;31.87;32.16;96216.16;5091910;28;20052;-70
2022/07/21 09:14:11;;;;;;;6.05;4.53;;;;;;;31.86;32.25;96209.91;5091345;28;20490;-70
2022/07/21 09:17:01;;;;;;;5.60;4.90;;;;;;;32.29;32.08;96211.69;5091524;28;20020;-70
2022/07/21 09:19:41;;;;;;;5.80;4.80;;;;;;;31.80;32.97;96210.16;5081788;28;20032;-69
2022/07/21 09:22:14;;;;;;;5.65;5.10;;;;;;;32.36;31.23;96204.09;5091178;28;20148;-69
2022/07/21 09:24:40;;;;;;;4.75;4.35;;;;;;;32.61;31.19;96201.66;5064166;28;20103;-69
2022/07/21 09:27:18;;;;;;;5.95;4.70;;;;;;;32.07;32.03;96203.72;5091341;28;20107;-69
2022/07/21 09:29:50;;;;;;;9.63;5.10;;;;;;;32.18;31.63;96199.94;5063782;28;20509;-70
2022/07/21 09:32:25;;;;;;;7.50;4.45;;;;;;;32.29;30.78;96212.47;5091446;28;20069;-70
2022/07/21 09:34:59;;;;;;;5.05;4.65;;;;;;;31.79;32.60;96198.44;5063657;28;20028;-70
2022/07/21 09:37:24;;;;;;;4.97;4.57;;;;;;;31.94;32.49;96200.38;5091162;28;20065;-70
2022/07/21 09:39:59;;;;;;;6.82;4.97;;;;;;;32.50;31.53;96196.19;5090857;28;20023;-68
2022/07/21 09:42:33;;;;;;;5.25;4.82;;;;;;;32.96;30.67;96197.31;5091278;28;20356;-69
2022/07/21 09:45:01;;;;;;;4.88;4.38;;;;;;;33.29;30.17;96197.84;5090961;28;20031;-69
2022/07/21 09:47:29;;;;;;;5.80;4.57;;;;;;;33.17;30.92;96191.84;5091125;28;20418;-69
2022/07/21 09:49:56;;;;;;;4.63;4.00;;;;;;;33.04;29.75;96199.50;5090921;28;20032;-69
2022/07/21 09:52:30;;;;;;;5.10;4.60;;;;;;;33.00;30.60;96196.50;5090801;28;20387;-69
2022/07/21 09:55:05;;;;;;;6.55;4.38;;;;;;;33.08;31.21;96192.41;5072775;28;20020;-69
2022/07/21 09:57:30;;;;;;;4.50;4.10;;;;;;;33.15;30.42;96183.94;5090536;28;20093;-68
2022/07/21 09:59:57;;;;;;;5.03;4.32;;;;;;;33.35;30.32;96188.53;5090639;28;20032;-68
2022/07/21 10:02:25;;;;;;;5.88;4.38;;;;;;;33.34;30.09;96178.72;5090772;28;20019;-69
2022/07/21 10:05:08;;;;;;;6.30;4.22;;;;;;;32.77;30.50;96176.03;5090519;28;20028;-69
2022/07/21 10:07:48;;;;;;;5.78;4.70;;;;;;;33.09;30.06;96174.13;5090626;28;20031;-68
2022/07/21 10:10:14;;;;;;;6.68;4.70;;;;;;;33.47;30.06;96173.78;5090493;28;20057;-69
2022/07/21 10:12:40;;;;;;;5.95;4.40;;;;;;;33.43;30.59;96163.44;5090768;28;20016;-69
2022/07/21 10:15:06;;;;;;;5.47;4.30;;;;;;;33.82;30.16;96163.84;5090459;28;20364;-68
2022/07/21 10:17:31;;;;;;;4.35;4.00;;;;;;;33.88;29.68;96170.91;5090154;28;20514;-69
2022/07/21 10:20:10;;;;;;;7.65;4.60;;;;;;;33.64;29.68;96162.56;5089014;28;20024;-69
2022/07/21 10:23:17;;;;;;;6.45;4.90;;;;;;;33.38;30.14;96159.88;5090275;28;20077;-69
2022/07/21 10:25:43;;;;;;;4.78;4.38;;;;;;;33.58;28.98;96159.84;5087284;28;20036;-68
2022/07/21 10:28:18;;;;;;;5.00;4.55;;;;;;;33.20;30.64;96164.84;5090416;28;20107;-69
2022/07/21 10:30:54;;;;;;;5.13;4.65;;;;;;;33.77;28.54;96166.59;5090410;28;20073;-68
2022/07/21 10:33:42;;;;;;;5.80;4.57;;;;;;;33.83;28.89;96157.28;5089937;28;20533;-68
2022/07/21 10:36:08;;;;;;;4.78;4.38;;;;;;;34.17;28.03;96159.31;5089942;28;20079;-69
2022/07/21 10:38:36;;;;;;;6.72;4.93;;;;;;;33.61;29.64;96154.94;5090065;28;20042;-68
2022/07/21 10:41:05;;;;;;;4.82;4.40;;;;;;;33.96;28.57;96153.16;5089939;28;20059;-68
2022/07/21 10:43:30;;;;;;;5.72;4.63;;;;;;;34.41;28.46;96148.47;5090108;28;20395;-68
2022/07/21 10:45:58;;;;;;;5.00;4.60;;;;;;;34.63;27.95;96149.19;5090186;28;20039;-69
2022/07/21 10:48:42;;;;;;;5.30;4.75;;;;;;;34.29;28.88;96151.56;5089810;28;20102;-69
2022/07/21 10:51:10;;;;;;;5.40;4.75;;;;;;;34.38;28.91;96148.25;5089883;28;20032;-69
2022/07/21 10:53:37;;;;;;;5.68;4.97;;;;;;;34.69;27.88;96154.31;5089942;28;20201;-69
2022/07/21 10:56:03;;;;;;;5.85;4.65;;;;;;;35.26;27.83;96150.22;5089837;28;20028;-68
2022/07/21 10:58:32;;;;;;;5.78;5.28;;;;;;;35.21;27.42;96140.19;5089709;28;20040;-68
2022/07/21 11:01:03;;;;;;;6.93;4.68;;;;;;;35.22;26.96;96139.06;5089992;28;20024;-68
2022/07/21 11:03:30;;;;;;;5.65;4.85;;;;;;;35.01;26.31;96143.94;5090180;28;20020;-68
2022/07/21 11:06:24;;;;;;;6.57;4.60;;;;;;;35.07;26.84;96133.75;5089960;28;20493;-68
2022/07/21 11:09:06;;;;;;;4.97;4.50;;;;;;;35.17;26.62;96128.19;5061861;28;20093;-69
2022/07/21 11:11:38;;;;;;;5.88;4.90;;;;;;;35.47;27.32;96136.31;5089622;28;20024;-68
2022/07/21 11:14:18;;;;;;;8.48;4.82;;;;;;;35.69;26.82;96128.41;5089975;28;20020;-68
2022/07/21 11:16:49;;;;;;;6.40;5.05;;;;;;;35.59;27.14;96128.56;5089790;28;20016;-68
2022/07/21 11:19:49;;;;;;;9.60;5.05;;;;;;;34.68;27.76;96130.81;5088643;28;20028;-69
2022/07/21 11:22:22;;;;;;;4.75;4.32;;;;;;;34.69;28.46;96126.97;5089852;28;20028;-69
2022/07/21 11:24:50;;;;;;;6.57;5.00;;;;;;;35.52;26.90;96111.69;5090149;28;20030;-69
2022/07/21 11:27:21;;;;;;;6.45;4.68;;;;;;;35.65;26.64;96105.47;5090215;28;20453;-69
2022/07/21 11:29:48;;;;;;;4.95;4.53;;;;;;;35.71;27.04;96106.22;5090059;28;20028;-69
2022/07/21 11:32:16;;;;;;;6.25;4.88;;;;;;;35.93;26.98;96105.66;5089566;28;20028;-68
2022/07/21 11:34:57;;;;;;;5.18;4.78;;;;;;;36.05;25.87;96102.50;5089341;28;20028;-68
2022/07/21 11:37:34;;;;;;;5.07;4.25;;;;;;;36.10;25.65;96098.84;5089376;28;20497;-68